createdAt,value
2022-11-05T00:01:51.197Z,12.16
2022-11-05T00:04:37.566Z,12.23
2022-11-05T00:07:27.303Z,11.88
2022-11-05T00:10:00.304Z,11.69
2022-11-05T00:12:46.434Z,11.28
2022-11-05T00:15:32.628Z,11.76
2022-11-05T00:17:59.805Z,12.28
2022-11-05T00:20:27.293Z,12.30
2022-11-05T00:23:22.971Z,12.35
2022-11-05T00:25:56.206Z,12.76
2022-11-05T00:28:23.504Z,12.49
2022-11-05T00:30:51.230Z,12.00
2022-11-05T00:33:18.452Z,11.92
2022-11-05T00:35:45.733Z,12.19
2022-11-05T00:38:13.246Z,11.37
2022-11-05T00:40:40.521Z,11.70
2022-11-05T00:43:26.612Z,11.96
2022-11-05T00:45:54.135Z,10.92
2022-11-05T00:48:40.239Z,11.33
2022-11-05T00:51:07.983Z,11.57
2022-11-05T00:53:35.186Z,11.83
2022-11-05T00:56:02.625Z,12.09
2022-11-05T00:58:30.144Z,11.89
2022-11-05T01:00:57.757Z,11.42
2022-11-05T01:03:26.210Z,11.35
2022-11-05T01:05:54.618Z,12.09
2022-11-05T01:08:22.537Z,11.51
2022-11-05T01:10:51.120Z,11.93
2022-11-05T01:13:20.254Z,11.84
2022-11-05T01:15:48.054Z,11.12
2022-11-05T01:18:15.262Z,11.61
2022-11-05T01:20:42.725Z,11.79
2022-11-05T01:23:13.445Z,11.72
2022-11-05T01:25:44.147Z,11.85
2022-11-05T01:28:11.635Z,11.10
2022-11-05T01:30:38.832Z,10.78
2022-11-05T01:33:06.031Z,11.41
2022-11-05T01:35:33.559Z,11.41
2022-11-05T01:38:00.752Z,10.92
2022-11-05T01:40:27.934Z,10.85
2022-11-05T01:42:55.378Z,10.80
2022-11-05T01:45:23.893Z,10.64
2022-11-05T01:47:51.139Z,11.47
2022-11-05T01:50:21.778Z,11.84
2022-11-05T01:52:49.331Z,11.73
2022-11-05T01:55:17.060Z,11.24
2022-11-05T01:57:44.475Z,11.44
2022-11-05T02:00:11.988Z,11.69
2022-11-05T02:02:40.237Z,11.15
2022-11-05T02:05:10.729Z,10.98
2022-11-05T02:07:37.929Z,11.14
2022-11-05T02:10:08.904Z,10.63
2022-11-05T02:12:36.764Z,10.80
2022-11-05T02:15:04.081Z,10.25
2022-11-05T02:17:37.308Z,10.35
2022-11-05T02:20:07.727Z,10.39
2022-11-05T02:22:52.924Z,10.51
2022-11-05T02:25:32.277Z,10.71
2022-11-05T02:28:07.337Z,10.40
2022-11-05T02:30:34.800Z,10.23
2022-11-05T02:33:01.983Z,10.47
2022-11-05T02:35:31.855Z,10.34
2022-11-05T02:38:13.688Z,10.68
2022-11-05T02:40:50.694Z,9.98
2022-11-05T02:43:38.478Z,10.46
2022-11-05T02:46:26.792Z,9.92
2022-11-05T02:49:03.723Z,10.10
2022-11-05T02:51:51.143Z,10.42
2022-11-05T02:54:21.584Z,10.01
2022-11-05T02:56:49.590Z,10.24
2022-11-05T02:59:16.794Z,10.42
2022-11-05T03:01:44.323Z,10.19
2022-11-05T03:04:12.094Z,10.34
2022-11-05T03:06:42.170Z,10.58
2022-11-05T03:09:09.585Z,10.39
2022-11-05T03:11:40.802Z,10.34
2022-11-05T03:14:37.563Z,10.57
2022-11-05T03:17:23.608Z,10.13
2022-11-05T03:19:54.365Z,10.38
2022-11-05T03:22:23.972Z,11.32
2022-11-05T03:24:52.600Z,10.60
2022-11-05T03:27:20.571Z,10.83
2022-11-05T03:29:49.357Z,10.92
2022-11-05T03:32:16.886Z,11.51
2022-11-05T03:34:47.670Z,11.10
2022-11-05T03:37:15.364Z,11.75
2022-11-05T03:39:43.651Z,11.48
2022-11-05T03:42:11.666Z,11.33
2022-11-05T03:44:39.596Z,11.45
2022-11-05T03:47:08.214Z,11.09
2022-11-05T03:49:36.642Z,11.01
2022-11-05T03:52:15.495Z,11.04
2022-11-05T03:54:42.659Z,11.09
2022-11-05T03:57:14.914Z,10.48
2022-11-05T03:59:43.222Z,10.63
2022-11-05T04:02:11.556Z,11.13
2022-11-05T04:04:39.321Z,10.85
2022-11-05T04:07:25.395Z,10.71
2022-11-05T04:10:11.731Z,10.72
2022-11-05T04:12:57.416Z,10.62
2022-11-05T04:15:24.958Z,10.51
2022-11-05T04:17:52.117Z,11.41
2022-11-05T04:20:38.036Z,11.12
2022-11-05T04:23:24.932Z,11.11
2022-11-05T04:25:52.130Z,10.85
2022-11-05T04:28:19.614Z,11.15
2022-11-05T04:30:46.807Z,10.57
2022-11-05T04:33:15.349Z,10.63
2022-11-05T04:35:43.801Z,10.20
2022-11-05T04:38:12.075Z,10.42
2022-11-05T04:40:39.243Z,10.11
2022-11-05T04:43:13.656Z,10.92
2022-11-05T04:45:42.286Z,10.21
2022-11-05T04:48:09.960Z,10.62
2022-11-05T04:50:37.208Z,10.72
2022-11-05T04:53:04.365Z,10.85
2022-11-05T04:55:31.796Z,10.81
2022-11-05T04:57:59.048Z,10.27
2022-11-05T05:00:26.238Z,10.92
2022-11-05T05:02:53.719Z,11.03
2022-11-05T05:05:22.580Z,10.09
2022-11-05T05:07:49.787Z,11.07
2022-11-05T05:10:17.441Z,10.58
2022-11-05T05:12:44.617Z,9.98
2022-11-05T05:15:11.821Z,10.64
2022-11-05T05:17:39.289Z,11.26
2022-11-05T05:20:25.135Z,11.40
2022-11-05T05:22:55.559Z,11.41
2022-11-05T05:25:22.870Z,11.46
2022-11-05T05:27:50.104Z,10.93
2022-11-05T05:30:17.593Z,10.85
2022-11-05T05:32:44.856Z,11.26
2022-11-05T05:35:12.055Z,11.50
2022-11-05T05:37:39.487Z,11.39
2022-11-05T05:40:06.946Z,11.35
2022-11-05T05:42:37.569Z,10.69
2022-11-05T05:45:09.456Z,10.90
2022-11-05T05:47:36.634Z,10.60
2022-11-05T05:50:04.077Z,10.96
2022-11-05T05:52:31.583Z,11.11
2022-11-05T05:54:58.788Z,10.96
2022-11-05T05:57:25.983Z,10.99
2022-11-05T05:59:53.411Z,11.38
2022-11-05T06:02:20.663Z,11.29
2022-11-05T06:04:48.274Z,11.05
2022-11-05T06:07:15.488Z,11.11
2022-11-05T06:09:42.637Z,11.30
2022-11-05T06:12:10.102Z,10.69
2022-11-05T06:14:37.247Z,11.11
2022-11-05T06:17:04.441Z,11.14
2022-11-05T06:19:31.943Z,11.34
2022-11-05T06:21:59.109Z,11.52
2022-11-05T06:24:26.245Z,11.52
2022-11-05T06:26:53.725Z,11.43
2022-11-05T06:29:20.939Z,10.99
2022-11-05T06:31:48.150Z,10.56
2022-11-05T06:34:15.584Z,10.83
2022-11-05T06:36:42.755Z,11.39
2022-11-05T06:39:10.391Z,11.41
2022-11-05T06:41:56.990Z,11.53
2022-11-05T06:44:25.008Z,11.52
2022-11-05T06:46:52.486Z,11.75
2022-11-05T06:49:19.688Z,11.64
2022-11-05T06:51:46.915Z,11.94
2022-11-05T06:54:14.425Z,11.42
2022-11-05T06:56:41.663Z,11.48
2022-11-05T06:59:08.866Z,11.57
2022-11-05T07:01:37.463Z,11.51
2022-11-05T07:04:04.722Z,11.39
2022-11-05T07:06:36.848Z,11.00
2022-11-05T07:09:04.673Z,11.34
2022-11-05T07:11:31.875Z,11.22
2022-11-05T07:13:59.244Z,11.86
2022-11-05T07:16:26.744Z,11.37
2022-11-05T07:18:55.887Z,12.10
2022-11-05T07:21:23.157Z,12.31
2022-11-05T07:23:50.663Z,11.23
2022-11-05T07:26:17.856Z,11.02
2022-11-05T07:28:45.408Z,11.39
2022-11-05T07:31:12.885Z,11.62
2022-11-05T07:33:40.102Z,11.51
2022-11-05T07:36:07.474Z,11.64
2022-11-05T07:38:34.936Z,11.67
2022-11-05T07:41:02.141Z,12.11
2022-11-05T07:43:29.313Z,12.40
2022-11-05T07:45:56.804Z,11.82
2022-11-05T07:48:24.101Z,11.94
2022-11-05T07:50:51.697Z,11.82
2022-11-05T07:53:20.709Z,11.77
2022-11-05T07:55:47.974Z,11.62
2022-11-05T07:58:15.176Z,12.06
2022-11-05T08:00:42.879Z,11.97
2022-11-05T08:03:12.272Z,11.74
2022-11-05T08:05:40.506Z,12.30
2022-11-05T08:08:08.396Z,11.81
2022-11-05T08:10:36.259Z,12.31
2022-11-05T08:13:03.944Z,11.97
2022-11-05T08:15:31.106Z,12.08
2022-11-05T08:17:59.345Z,12.45
2022-11-05T08:20:26.746Z,12.13
2022-11-05T08:22:54.809Z,11.77
2022-11-05T08:25:22.363Z,11.98
2022-11-05T08:27:55.111Z,12.06
2022-11-05T08:30:22.626Z,12.20
2022-11-05T08:32:49.892Z,12.24
2022-11-05T08:35:17.176Z,12.12
2022-11-05T08:37:44.596Z,12.28
2022-11-05T08:40:11.993Z,12.00
2022-11-05T08:42:39.275Z,11.83
2022-11-05T08:45:07.109Z,11.79
2022-11-05T08:47:34.318Z,11.36
2022-11-05T08:50:01.641Z,11.57
2022-11-05T08:52:29.133Z,11.51
2022-11-05T08:54:56.332Z,12.01
2022-11-05T08:57:23.645Z,11.85
2022-11-05T08:59:51.135Z,11.84
2022-11-05T09:02:18.482Z,12.08
2022-11-05T09:04:45.834Z,12.14
2022-11-05T09:07:13.330Z,12.07
2022-11-05T09:09:40.515Z,11.49
2022-11-05T09:12:12.656Z,11.75
2022-11-05T09:14:40.661Z,11.85
2022-11-05T09:17:15.992Z,12.25
2022-11-05T09:19:43.402Z,11.71
2022-11-05T09:22:12.758Z,12.03
2022-11-05T09:24:40.417Z,11.71
2022-11-05T09:27:11.906Z,11.75
2022-11-05T09:29:39.627Z,11.87
2022-11-05T09:32:06.971Z,11.81
2022-11-05T09:34:34.678Z,12.56
2022-11-05T09:37:01.896Z,12.01
2022-11-05T09:39:29.140Z,12.35
2022-11-05T09:41:57.723Z,11.65
2022-11-05T09:44:26.209Z,11.79
2022-11-05T09:46:54.767Z,12.14
2022-11-05T09:49:42.539Z,12.62
2022-11-05T09:52:33.133Z,12.57
2022-11-05T09:55:00.754Z,12.44
2022-11-05T09:57:28.876Z,12.17
2022-11-05T09:59:57.358Z,12.50
2022-11-05T10:02:29.763Z,12.28
2022-11-05T10:05:01.485Z,12.59
2022-11-05T10:07:31.389Z,12.91
2022-11-05T10:09:59.756Z,12.33
2022-11-05T10:12:39.220Z,13.59
2022-11-05T10:15:06.798Z,12.65
2022-11-05T10:17:39.067Z,12.65
2022-11-05T10:20:06.812Z,12.82
2022-11-05T10:22:34.040Z,13.03
2022-11-05T10:25:01.236Z,12.61
2022-11-05T10:27:28.752Z,13.80
2022-11-05T10:29:56.139Z,13.53
2022-11-05T10:32:23.306Z,13.54
2022-11-05T10:34:50.791Z,13.21
2022-11-05T10:37:17.993Z,13.86
2022-11-05T10:39:45.241Z,12.97
2022-11-05T10:42:18.439Z,13.74
2022-11-05T10:44:57.952Z,13.34
2022-11-05T10:47:37.503Z,13.56
2022-11-05T10:50:16.785Z,13.57
2022-11-05T10:52:56.087Z,13.25
2022-11-05T10:55:25.349Z,13.77
2022-11-05T10:57:53.069Z,13.80
2022-11-05T11:00:24.426Z,13.95
2022-11-05T11:02:59.096Z,12.96
2022-11-05T11:05:27.932Z,12.87
2022-11-05T11:08:10.447Z,13.21
2022-11-05T11:10:42.683Z,13.33
2022-11-05T11:13:20.602Z,13.02
2022-11-05T11:15:50.808Z,12.74
2022-11-05T11:18:34.669Z,13.15
2022-11-05T11:21:07.599Z,13.17
2022-11-05T11:23:38.805Z,13.15
2022-11-05T11:26:06.092Z,13.57
2022-11-05T11:28:35.239Z,13.66
2022-11-05T11:31:09.928Z,13.83
2022-11-05T11:33:37.673Z,13.56
2022-11-05T11:36:05.382Z,13.91
2022-11-05T11:38:34.101Z,13.65
2022-11-05T11:41:24.963Z,13.72
2022-11-05T11:44:03.051Z,13.70
2022-11-05T11:46:31.912Z,13.52
2022-11-05T11:48:59.163Z,13.91
2022-11-05T11:51:36.649Z,13.22
2022-11-05T11:54:04.625Z,13.79
2022-11-05T11:56:43.164Z,13.51
2022-11-05T11:59:19.753Z,13.79
2022-11-05T12:01:54.004Z,13.80
2022-11-05T12:04:38.587Z,13.49
2022-11-05T12:07:24.365Z,13.64
2022-11-05T12:09:55.057Z,13.23
2022-11-05T12:12:24.751Z,13.17
2022-11-05T12:15:00.652Z,13.63
2022-11-05T12:17:30.915Z,13.98
2022-11-05T12:20:01.821Z,14.42
2022-11-05T12:22:31.244Z,13.87
2022-11-05T12:25:17.549Z,13.86
2022-11-05T12:27:44.736Z,13.86
2022-11-05T12:30:14.352Z,13.75
2022-11-05T12:32:49.577Z,14.01
2022-11-05T12:35:35.899Z,13.82
2022-11-05T12:38:09.735Z,13.47
2022-11-05T12:40:37.295Z,14.28
2022-11-05T12:43:16.613Z,14.42
2022-11-05T12:45:51.230Z,13.81
2022-11-05T12:48:37.497Z,13.78
2022-11-05T12:51:10.747Z,14.13
2022-11-05T12:54:04.372Z,14.58
2022-11-05T12:56:36.944Z,13.93
2022-11-05T12:59:13.015Z,14.25
2022-11-05T13:01:41.991Z,14.13
2022-11-05T13:04:14.801Z,14.25
2022-11-05T13:06:42.890Z,14.49
2022-11-05T13:09:15.466Z,13.66
2022-11-05T13:11:43.034Z,14.53
2022-11-05T13:14:18.010Z,14.49
2022-11-05T13:17:02.595Z,13.69
2022-11-05T13:19:32.323Z,13.97
2022-11-05T13:22:00.970Z,13.66
2022-11-05T13:24:28.907Z,14.29
2022-11-05T13:27:01.168Z,14.33
2022-11-05T13:29:31.640Z,14.13
2022-11-05T13:32:38.159Z,14.15
2022-11-05T13:35:07.503Z,13.38
2022-11-05T13:37:55.041Z,14.25
2022-11-05T13:40:24.962Z,13.51
2022-11-05T13:43:11.057Z,13.57
2022-11-05T13:46:02.842Z,13.36
2022-11-05T13:48:51.710Z,13.52
2022-11-05T13:51:19.514Z,13.23
2022-11-05T13:54:05.604Z,13.61
2022-11-05T13:56:36.416Z,13.70
2022-11-05T13:59:06.857Z,13.61
2022-11-05T14:01:37.756Z,13.24
2022-11-05T14:04:05.303Z,13.57
2022-11-05T14:06:33.760Z,12.97
2022-11-05T14:09:03.144Z,13.17
2022-11-05T14:11:31.713Z,13.49
2022-11-05T14:14:01.736Z,12.77
2022-11-05T14:16:40.460Z,13.57
2022-11-05T14:19:20.258Z,13.64
2022-11-05T14:21:48.471Z,14.17
2022-11-05T14:24:19.596Z,14.15
2022-11-05T14:27:01.969Z,13.77
2022-11-05T14:29:38.353Z,13.39
2022-11-05T14:32:18.627Z,13.36
2022-11-05T14:34:49.165Z,13.82
2022-11-05T14:37:37.122Z,12.68
2022-11-05T14:40:24.883Z,13.13
2022-11-05T14:42:53.392Z,13.00
2022-11-05T14:45:23.399Z,13.56
2022-11-05T14:47:54.668Z,13.67
2022-11-05T14:50:25.932Z,13.45
2022-11-05T14:52:54.234Z,13.87
2022-11-05T14:55:35.399Z,13.58
2022-11-05T14:58:04.575Z,13.47
2022-11-05T15:00:34.127Z,13.33
2022-11-05T15:03:02.490Z,13.12
2022-11-05T15:05:38.075Z,13.10
2022-11-05T15:08:26.882Z,13.36
2022-11-05T15:10:54.757Z,13.22
2022-11-05T15:13:30.688Z,12.76
2022-11-05T15:15:59.091Z,13.20
2022-11-05T15:18:30.579Z,12.98
2022-11-05T15:20:58.722Z,12.87
2022-11-05T15:23:27.033Z,12.98
2022-11-05T15:26:06.158Z,12.80
2022-11-05T15:28:41.644Z,12.68
2022-11-05T15:31:13.223Z,13.14
2022-11-05T15:33:44.753Z,12.67
2022-11-05T15:36:31.516Z,12.47
2022-11-05T15:41:46.607Z,13.02
2022-11-05T15:44:23.347Z,13.36
2022-11-05T15:47:24.485Z,12.96
2022-11-05T15:49:53.423Z,12.75
2022-11-05T15:52:31.378Z,12.83
2022-11-05T15:55:14.127Z,12.66
2022-11-05T15:57:50.269Z,11.98
2022-11-05T16:00:22.436Z,12.16
2022-11-05T16:02:54.725Z,12.20
2022-11-05T16:05:22.068Z,12.25
2022-11-05T16:07:49.802Z,12.58
2022-11-05T16:10:24.063Z,13.19
2022-11-05T16:12:51.687Z,12.82
2022-11-05T16:15:23.783Z,12.82
2022-11-05T16:17:58.023Z,12.96
2022-11-05T16:20:28.736Z,12.93
2022-11-05T16:23:19.023Z,13.24
2022-11-05T16:25:47.257Z,12.75
2022-11-05T16:28:24.679Z,12.66
2022-11-05T16:30:59.607Z,12.67
2022-11-05T16:33:31.091Z,12.50
2022-11-05T16:35:58.568Z,12.48
2022-11-05T16:38:25.786Z,12.61
2022-11-05T16:40:53.162Z,12.43
2022-11-05T16:43:21.933Z,12.98
2022-11-05T16:45:49.594Z,12.86
2022-11-05T16:48:17.116Z,12.99
2022-11-05T16:50:44.870Z,13.56
2022-11-05T16:53:12.497Z,13.74
2022-11-05T16:55:40.328Z,13.39
2022-11-05T16:58:25.264Z,13.64
2022-11-05T17:00:53.084Z,13.30
2022-11-05T17:03:20.760Z,13.49
2022-11-05T17:05:48.181Z,13.40
2022-11-05T17:08:15.777Z,13.98
2022-11-05T17:10:43.629Z,13.70
2022-11-05T17:13:17.417Z,13.75
2022-11-05T17:15:46.025Z,12.75
2022-11-05T17:18:18.210Z,13.72
2022-11-05T17:20:50.900Z,13.28
2022-11-05T17:23:19.356Z,13.61
2022-11-05T17:26:03.198Z,13.80
2022-11-05T17:28:30.714Z,12.70
2022-11-05T17:31:02.207Z,13.17
2022-11-05T17:33:29.529Z,13.44
2022-11-05T17:35:56.933Z,13.27
2022-11-05T17:38:25.086Z,12.49
2022-11-05T17:40:52.387Z,13.30
2022-11-05T17:43:20.251Z,12.81
2022-11-05T17:45:49.251Z,13.18
2022-11-05T17:48:16.933Z,13.64
2022-11-05T17:50:45.373Z,13.25
2022-11-05T17:53:13.714Z,13.22
2022-11-05T17:55:41.928Z,13.46
2022-11-05T17:58:10.018Z,13.63
2022-11-05T18:00:37.852Z,13.48
2022-11-05T18:03:05.613Z,13.44
2022-11-05T18:05:33.932Z,12.98
2022-11-05T18:08:01.501Z,13.37
2022-11-05T18:10:29.264Z,12.78
2022-11-05T18:12:56.707Z,13.08
2022-11-05T18:15:24.088Z,13.84
2022-11-05T18:17:52.154Z,13.97
2022-11-05T18:20:19.852Z,13.87
2022-11-05T18:22:48.872Z,14.02
2022-11-05T18:25:16.773Z,13.77
2022-11-05T18:27:44.516Z,14.28
2022-11-05T18:30:14.087Z,13.76
2022-11-05T18:32:42.450Z,13.53
2022-11-05T18:35:10.030Z,13.32
2022-11-05T18:37:38.564Z,13.51
2022-11-05T18:40:07.037Z,13.89
2022-11-05T18:42:34.447Z,13.61
2022-11-05T18:45:01.718Z,13.89
2022-11-05T18:47:29.443Z,14.04
2022-11-05T18:49:56.883Z,14.11
2022-11-05T18:52:25.939Z,14.20
2022-11-05T18:54:53.969Z,14.32
2022-11-05T18:57:21.569Z,14.08
2022-11-05T18:59:49.112Z,14.18
2022-11-05T19:02:17.408Z,14.24
2022-11-05T19:05:00.666Z,14.25
2022-11-05T19:07:35.555Z,13.93
2022-11-05T19:10:02.955Z,13.84
2022-11-05T19:12:30.412Z,14.30
2022-11-05T19:15:02.397Z,14.24
2022-11-05T19:17:31.891Z,14.07
2022-11-05T19:20:00.730Z,14.16
2022-11-05T19:22:28.233Z,14.37
2022-11-05T19:24:56.008Z,14.34
2022-11-05T19:27:23.783Z,14.06
2022-11-05T19:29:51.237Z,13.80
2022-11-05T19:32:18.620Z,13.68
2022-11-05T19:34:46.370Z,13.73
2022-11-05T19:37:13.784Z,14.07
2022-11-05T19:39:41.321Z,13.95
2022-11-05T19:42:09.004Z,14.02
2022-11-05T19:44:36.497Z,13.89
2022-11-05T19:47:03.855Z,13.96
2022-11-05T19:49:31.527Z,13.33
2022-11-05T19:51:58.962Z,13.83
2022-11-05T19:54:26.347Z,13.65
2022-11-05T19:56:54.107Z,13.70
2022-11-05T19:59:21.388Z,13.01
2022-11-05T20:01:48.899Z,13.51
2022-11-05T20:04:16.739Z,13.30
2022-11-05T20:06:44.545Z,13.40
2022-11-05T20:09:22.592Z,13.48
2022-11-05T20:11:51.188Z,12.92
2022-11-05T20:14:19.725Z,12.51
2022-11-05T20:16:47.176Z,13.25
2022-11-05T20:19:15.651Z,12.73
2022-11-05T20:21:42.996Z,12.79
2022-11-05T20:24:18.814Z,13.10
2022-11-05T20:26:51.371Z,12.71
2022-11-05T20:29:18.811Z,13.28
2022-11-05T20:31:46.157Z,12.93
2022-11-05T20:34:13.790Z,12.98
2022-11-05T20:36:41.526Z,13.10
2022-11-05T20:39:10.060Z,13.01
2022-11-05T20:41:37.896Z,13.25
2022-11-05T20:44:05.217Z,13.39
2022-11-05T20:46:33.112Z,13.51
2022-11-05T20:49:00.815Z,13.66
2022-11-05T20:51:28.231Z,13.49
2022-11-05T20:53:56.361Z,13.47
2022-11-05T20:56:24.825Z,13.66
2022-11-05T20:58:52.715Z,13.21
2022-11-05T21:01:21.327Z,13.03
2022-11-05T21:03:49.298Z,13.43
2022-11-05T21:06:16.911Z,13.46
2022-11-05T21:08:46.316Z,13.50
2022-11-05T21:11:13.971Z,13.48
2022-11-05T21:13:41.721Z,13.12
2022-11-05T21:16:14.040Z,13.58
2022-11-05T21:18:44.426Z,13.64
2022-11-05T21:21:13.317Z,13.43
2022-11-05T21:23:41.801Z,13.48
2022-11-05T21:26:10.903Z,13.23
2022-11-05T21:28:39.242Z,13.49
2022-11-05T21:31:07.120Z,13.83
2022-11-05T21:33:35.011Z,13.78
2022-11-05T21:36:06.590Z,13.50
2022-11-05T21:38:34.111Z,13.09
2022-11-05T21:41:02.877Z,13.45
2022-11-05T21:43:30.394Z,13.44
2022-11-05T21:46:00.524Z,13.50
2022-11-05T21:48:28.091Z,13.20
2022-11-05T21:51:14.180Z,13.53
2022-11-05T21:54:00.315Z,13.55
2022-11-05T21:56:46.415Z,13.91
2022-11-05T21:59:33.651Z,13.85
2022-11-05T22:02:03.811Z,13.72
2022-11-05T22:04:33.035Z,13.51
2022-11-05T22:07:00.345Z,13.79
2022-11-05T22:09:28.070Z,13.78
2022-11-05T22:11:55.666Z,13.84
2022-11-05T22:14:23.466Z,13.80
2022-11-05T22:16:50.752Z,13.41
2022-11-05T22:19:18.342Z,13.84
2022-11-05T22:21:45.719Z,13.87
2022-11-05T22:24:12.933Z,13.84
2022-11-05T22:26:40.857Z,13.91
2022-11-05T22:29:08.049Z,13.61
2022-11-05T22:31:36.657Z,13.33
2022-11-05T22:34:05.046Z,13.64
2022-11-05T22:36:32.636Z,13.90
2022-11-05T22:38:59.845Z,13.83
2022-11-05T22:41:27.374Z,13.78
2022-11-05T22:43:54.686Z,13.42
2022-11-05T22:46:23.882Z,13.21
2022-11-05T22:48:51.685Z,13.46
2022-11-05T22:51:20.000Z,13.63
2022-11-05T22:53:47.374Z,13.88
2022-11-05T22:56:15.827Z,13.99
2022-11-05T22:58:43.879Z,14.01
2022-11-05T23:01:11.853Z,13.54
2022-11-05T23:03:40.197Z,13.80
2022-11-05T23:06:28.278Z,13.92
2022-11-05T23:09:14.645Z,13.29
2022-11-05T23:11:42.190Z,13.19
2022-11-05T23:14:10.863Z,13.33
2022-11-05T23:16:56.730Z,13.66
2022-11-05T23:19:43.095Z,13.27
2022-11-05T23:22:33.019Z,13.27
2022-11-05T23:25:00.628Z,13.47
2022-11-05T23:27:31.647Z,13.05
2022-11-05T23:29:59.211Z,13.41
2022-11-05T23:32:28.199Z,13.58
2022-11-05T23:34:56.631Z,13.52
2022-11-05T23:37:43.035Z,13.60
2022-11-05T23:40:12.213Z,13.75
2022-11-05T23:42:58.043Z,13.65
2022-11-05T23:45:44.238Z,13.84
2022-11-05T23:48:20.582Z,14.02
2022-11-05T23:50:50.926Z,13.92
2022-11-05T23:53:18.313Z,13.85
2022-11-05T23:55:45.712Z,14.01
2022-11-05T23:58:13.451Z,13.86
